createdAt,value
2023-03-13T00:00:04.959Z,515.00
2023-03-13T00:00:34.951Z,515.00
2023-03-13T00:01:04.945Z,517.00
2023-03-13T00:01:34.947Z,516.00
2023-03-13T00:02:05.000Z,514.00
2023-03-13T00:02:35.022Z,513.00
2023-03-13T00:03:05.053Z,513.00
2023-03-13T00:03:35.054Z,512.00
2023-03-13T00:04:05.170Z,513.00
2023-03-13T00:04:35.311Z,513.00
2023-03-13T00:05:05.394Z,513.00
2023-03-13T00:05:35.415Z,514.00
2023-03-13T00:06:05.415Z,515.00
2023-03-13T00:06:35.422Z,514.00
2023-03-13T00:07:05.413Z,514.00
2023-03-13T00:07:35.408Z,513.00
2023-03-13T00:08:05.523Z,512.00
2023-03-13T00:08:35.523Z,512.00
2023-03-13T00:09:05.529Z,513.00
2023-03-13T00:09:35.509Z,513.00
2023-03-13T00:10:05.506Z,513.00
2023-03-13T00:10:35.507Z,512.00
2023-03-13T00:11:05.495Z,511.00
2023-03-13T00:11:35.495Z,510.00
2023-03-13T00:12:05.488Z,513.00
2023-03-13T00:12:35.607Z,512.00
2023-03-13T00:13:05.601Z,511.00
2023-03-13T00:13:35.596Z,512.00
2023-03-13T00:14:05.732Z,512.00
2023-03-13T00:14:35.707Z,511.00
2023-03-13T00:15:05.706Z,511.00
2023-03-13T00:15:35.822Z,511.00
2023-03-13T00:16:06.117Z,511.00
2023-03-13T00:16:36.093Z,510.00
2023-03-13T00:17:06.229Z,511.00
2023-03-13T00:17:36.116Z,513.00
2023-03-13T00:18:06.116Z,515.00
2023-03-13T00:18:36.115Z,513.00
2023-03-13T00:19:06.106Z,513.00
2023-03-13T00:19:36.101Z,511.00
2023-03-13T00:20:06.228Z,510.00
2023-03-13T00:20:36.242Z,511.00
2023-03-13T00:21:06.234Z,510.00
2023-03-13T00:21:36.302Z,511.00
2023-03-13T00:22:06.298Z,510.00
2023-03-13T00:22:36.292Z,508.00
2023-03-13T00:23:06.411Z,509.00
2023-03-13T00:23:36.406Z,510.00
2023-03-13T00:24:06.417Z,508.00
2023-03-13T00:24:36.402Z,508.00
2023-03-13T00:25:06.514Z,506.00
2023-03-13T00:25:36.648Z,505.00
2023-03-13T00:26:06.644Z,505.00
2023-03-13T00:26:36.643Z,505.00
2023-03-13T00:27:06.752Z,507.00
2023-03-13T00:27:36.874Z,506.00
2023-03-13T00:28:06.868Z,507.00
2023-03-13T00:28:36.873Z,506.00
2023-03-13T00:29:06.999Z,506.00
2023-03-13T00:29:37.068Z,508.00
2023-03-13T00:30:07.149Z,508.00
2023-03-13T00:30:37.250Z,508.00
2023-03-13T00:31:07.422Z,508.00
2023-03-13T00:31:37.426Z,509.00
2023-03-13T00:32:07.402Z,510.00
2023-03-13T00:32:37.498Z,509.00
2023-03-13T00:33:07.586Z,510.00
2023-03-13T00:33:37.672Z,509.00
2023-03-13T00:34:07.751Z,506.00
2023-03-13T00:34:37.825Z,507.00
2023-03-13T00:35:07.908Z,506.00
2023-03-13T00:35:38.043Z,506.00
2023-03-13T00:36:07.991Z,506.00
2023-03-13T00:36:38.073Z,506.00
2023-03-13T00:37:08.154Z,506.00
2023-03-13T00:37:38.241Z,505.00
2023-03-13T00:38:08.330Z,505.00
2023-03-13T00:38:38.426Z,506.00
2023-03-13T00:39:08.524Z,506.00
2023-03-13T00:39:38.515Z,506.00
2023-03-13T00:40:08.632Z,507.00
2023-03-13T00:40:38.632Z,508.00
2023-03-13T00:41:08.759Z,509.00
2023-03-13T00:41:38.780Z,510.00
2023-03-13T00:42:08.761Z,510.00
2023-03-13T00:42:38.882Z,511.00
2023-03-13T00:43:08.999Z,511.00
2023-03-13T00:43:39.108Z,511.00
2023-03-13T00:44:09.102Z,511.00
2023-03-13T00:44:39.101Z,511.00
2023-03-13T00:45:09.229Z,511.00
2023-03-13T00:45:39.203Z,511.00
2023-03-13T00:46:09.390Z,511.00
2023-03-13T00:46:39.369Z,509.00
2023-03-13T00:47:09.354Z,511.00
2023-03-13T00:47:39.373Z,512.00
2023-03-13T00:48:09.500Z,511.00
2023-03-13T00:48:39.486Z,512.00
2023-03-13T00:49:09.604Z,511.00
2023-03-13T00:49:39.600Z,512.00
2023-03-13T00:50:09.597Z,512.00
2023-03-13T00:50:39.748Z,510.00
2023-03-13T00:51:09.858Z,510.00
2023-03-13T00:51:39.839Z,511.00
2023-03-13T00:52:09.836Z,510.00
2023-03-13T00:52:39.948Z,508.00
2023-03-13T00:53:09.952Z,509.00
2023-03-13T00:53:40.068Z,509.00
2023-03-13T00:54:10.190Z,508.00
2023-03-13T00:54:40.179Z,508.00
2023-03-13T00:55:10.298Z,506.00
2023-03-13T00:55:40.411Z,505.00
2023-03-13T00:56:10.413Z,506.00
2023-03-13T00:56:40.549Z,506.00
2023-03-13T00:57:10.540Z,507.00
2023-03-13T00:57:40.538Z,507.00
2023-03-13T00:58:10.534Z,508.00
2023-03-13T00:58:40.650Z,509.00
2023-03-13T00:59:10.765Z,510.00
2023-03-13T00:59:40.766Z,510.00
2023-03-13T01:00:10.874Z,508.00
2023-03-13T01:00:40.937Z,510.00
2023-03-13T01:01:10.950Z,511.00
2023-03-13T01:01:40.938Z,511.00
2023-03-13T01:02:11.048Z,512.00
2023-03-13T01:02:41.058Z,513.00
2023-03-13T01:03:11.172Z,513.00
2023-03-13T01:03:41.038Z,514.00
2023-03-13T01:04:11.021Z,514.00
2023-03-13T01:04:41.142Z,513.00
2023-03-13T01:05:11.255Z,513.00
2023-03-13T01:05:41.254Z,514.00
2023-03-13T01:06:11.525Z,513.00
2023-03-13T01:06:41.294Z,513.00
2023-03-13T01:07:11.266Z,512.00
2023-03-13T01:07:41.389Z,511.00
2023-03-13T01:08:11.512Z,510.00
2023-03-13T01:08:41.504Z,509.00
2023-03-13T01:09:11.616Z,510.00
2023-03-13T01:09:41.741Z,511.00
2023-03-13T01:10:11.883Z,509.00
2023-03-13T01:10:41.973Z,507.00
2023-03-13T01:11:12.095Z,507.00
2023-03-13T01:11:42.221Z,506.00
2023-03-13T01:12:12.210Z,507.00
2023-03-13T01:12:42.212Z,509.00
2023-03-13T01:13:12.317Z,508.00
2023-03-13T01:13:42.382Z,509.00
2023-03-13T01:14:12.382Z,510.00
2023-03-13T01:14:42.503Z,509.00
2023-03-13T01:15:12.493Z,509.00
2023-03-13T01:15:42.658Z,507.00
2023-03-13T01:16:12.570Z,506.00
2023-03-13T01:16:42.556Z,506.00
2023-03-13T01:17:12.554Z,507.00
2023-03-13T01:17:42.678Z,506.00
2023-03-13T01:18:12.664Z,506.00
2023-03-13T01:18:42.656Z,506.00
2023-03-13T01:19:13.496Z,507.00
2023-03-13T01:19:42.723Z,507.00
2023-03-13T01:20:12.704Z,507.00
2023-03-13T01:20:42.827Z,507.00
2023-03-13T01:21:12.954Z,506.00
2023-03-13T01:21:42.944Z,506.00
2023-03-13T01:22:12.973Z,507.00
2023-03-13T01:22:42.956Z,509.00
2023-03-13T01:23:12.944Z,510.00
2023-03-13T01:23:43.072Z,512.00
2023-03-13T01:24:13.061Z,513.00
2023-03-13T01:24:43.183Z,512.00
2023-03-13T01:25:13.181Z,512.00
2023-03-13T01:25:43.174Z,512.00
2023-03-13T01:26:13.326Z,510.00
2023-03-13T01:26:43.327Z,508.00
2023-03-13T01:27:13.440Z,507.00
2023-03-13T01:27:43.438Z,506.00
2023-03-13T01:28:13.557Z,506.00
2023-03-13T01:28:43.566Z,505.00
2023-03-13T01:29:13.675Z,505.00
2023-03-13T01:29:43.674Z,504.00
2023-03-13T01:30:13.788Z,504.00
2023-03-13T01:30:43.816Z,505.00
2023-03-13T01:31:13.962Z,506.00
2023-03-13T01:31:43.872Z,506.00
2023-03-13T01:32:13.836Z,506.00
2023-03-13T01:32:43.871Z,508.00
2023-03-13T01:33:13.864Z,507.00
2023-03-13T01:33:43.981Z,507.00
2023-03-13T01:34:13.977Z,507.00
2023-03-13T01:34:44.098Z,509.00
2023-03-13T01:35:14.218Z,509.00
2023-03-13T01:35:44.456Z,510.00
2023-03-13T01:36:14.344Z,508.00
2023-03-13T01:36:44.479Z,510.00
2023-03-13T01:37:14.467Z,509.00
2023-03-13T01:37:44.614Z,512.00
2023-03-13T01:38:14.702Z,513.00
2023-03-13T01:38:44.702Z,514.00
2023-03-13T01:39:14.719Z,513.00
2023-03-13T01:39:44.749Z,512.00
2023-03-13T01:40:14.781Z,513.00
2023-03-13T01:40:44.819Z,513.00
2023-03-13T01:41:14.853Z,515.00
2023-03-13T01:41:44.888Z,512.00
2023-03-13T01:42:14.920Z,511.00
2023-03-13T01:42:44.952Z,511.00
2023-03-13T01:43:26.103Z,511.00
2023-03-13T01:43:45.051Z,511.00
2023-03-13T01:44:15.061Z,512.00
2023-03-13T01:44:45.089Z,511.00
2023-03-13T01:45:15.122Z,510.00
2023-03-13T01:45:45.158Z,509.00
2023-03-13T01:46:15.207Z,511.00
2023-03-13T01:46:45.316Z,511.00
2023-03-13T01:47:15.341Z,510.00
2023-03-13T01:47:48.038Z,510.00
2023-03-13T01:48:15.375Z,511.00
2023-03-13T01:48:45.432Z,512.00
2023-03-13T01:49:15.464Z,511.00
2023-03-13T01:49:45.504Z,511.00
2023-03-13T01:50:15.536Z,512.00
2023-03-13T01:50:45.567Z,510.00
2023-03-13T01:51:15.605Z,511.00
2023-03-13T01:51:45.664Z,509.00
2023-03-13T01:52:15.703Z,510.00
2023-03-13T01:52:45.706Z,510.00
2023-03-13T01:53:15.770Z,510.00
2023-03-13T01:53:45.783Z,510.00
2023-03-13T01:54:15.817Z,509.00
2023-03-13T01:54:45.844Z,509.00
2023-03-13T01:55:15.871Z,509.00
2023-03-13T01:55:45.905Z,509.00
2023-03-13T01:56:15.940Z,508.00
2023-03-13T01:56:45.983Z,508.00
2023-03-13T01:57:16.013Z,507.00
2023-03-13T01:57:46.058Z,509.00
2023-03-13T01:58:16.091Z,508.00
2023-03-13T01:58:46.111Z,508.00
2023-03-13T01:59:16.141Z,509.00
2023-03-13T01:59:46.174Z,509.00
2023-03-13T02:00:16.205Z,508.00
2023-03-13T02:00:46.246Z,509.00
2023-03-13T02:01:16.343Z,511.00
2023-03-13T02:01:46.325Z,512.00
2023-03-13T02:02:16.336Z,511.00
2023-03-13T02:02:46.466Z,512.00
2023-03-13T02:03:16.485Z,512.00
2023-03-13T02:03:46.517Z,511.00
2023-03-13T02:04:16.550Z,512.00
2023-03-13T02:04:46.588Z,511.00
2023-03-13T02:05:16.615Z,508.00
2023-03-13T02:05:46.654Z,507.00
2023-03-13T02:06:16.679Z,507.00
2023-03-13T02:06:46.733Z,507.00
2023-03-13T02:07:16.757Z,506.00
2023-03-13T02:07:46.785Z,506.00
2023-03-13T02:08:16.815Z,506.00
2023-03-13T02:08:46.873Z,506.00
2023-03-13T02:09:16.881Z,506.00
2023-03-13T02:09:46.917Z,505.00
2023-03-13T02:10:16.951Z,506.00
2023-03-13T02:10:46.982Z,508.00
2023-03-13T02:11:17.009Z,508.00
2023-03-13T02:11:47.054Z,508.00
2023-03-13T02:12:17.082Z,507.00
2023-03-13T02:12:47.117Z,505.00
2023-03-13T02:13:17.149Z,507.00
2023-03-13T02:13:47.188Z,507.00
2023-03-13T02:14:17.224Z,508.00
2023-03-13T02:14:47.261Z,509.00
2023-03-13T02:15:17.301Z,510.00
2023-03-13T02:15:47.386Z,510.00
2023-03-13T02:16:17.504Z,511.00
2023-03-13T02:16:47.526Z,513.00
2023-03-13T02:17:17.547Z,512.00
2023-03-13T02:17:47.583Z,511.00
2023-03-13T02:18:17.616Z,512.00
2023-03-13T02:18:47.647Z,511.00
2023-03-13T02:19:17.677Z,510.00
2023-03-13T02:19:47.716Z,510.00
2023-03-13T02:20:17.743Z,509.00
2023-03-13T02:20:47.774Z,509.00
2023-03-13T02:21:17.813Z,509.00
2023-03-13T02:21:47.848Z,509.00
2023-03-13T02:22:17.882Z,509.00
2023-03-13T02:22:47.911Z,508.00
2023-03-13T02:23:20.206Z,508.00
2023-03-13T02:23:47.996Z,508.00
2023-03-13T02:24:18.049Z,507.00
2023-03-13T02:24:48.050Z,508.00
2023-03-13T02:25:18.077Z,509.00
2023-03-13T02:25:48.163Z,511.00
2023-03-13T02:26:18.186Z,511.00
2023-03-13T02:26:48.227Z,509.00
2023-03-13T02:27:18.262Z,509.00
2023-03-13T02:27:48.296Z,508.00
2023-03-13T02:28:18.326Z,508.00
2023-03-13T02:28:48.359Z,507.00
2023-03-13T02:29:18.550Z,507.00
2023-03-13T02:29:48.452Z,507.00
2023-03-13T02:30:18.446Z,509.00
2023-03-13T02:30:48.587Z,511.00
2023-03-13T02:31:18.672Z,509.00
2023-03-13T02:31:48.794Z,509.00
2023-03-13T02:32:18.740Z,508.00
2023-03-13T02:32:48.836Z,509.00
2023-03-13T02:33:18.815Z,509.00
2023-03-13T02:33:48.933Z,510.00
2023-03-13T02:34:19.047Z,510.00
2023-03-13T02:34:49.058Z,508.00
2023-03-13T02:35:19.124Z,509.00
2023-03-13T02:35:49.165Z,509.00
2023-03-13T02:36:19.144Z,509.00
2023-03-13T02:36:49.169Z,509.00
2023-03-13T02:37:19.133Z,508.00
2023-03-13T02:37:49.129Z,508.00
2023-03-13T02:38:19.123Z,509.00
2023-03-13T02:38:49.239Z,508.00
2023-03-13T02:39:19.276Z,507.00
2023-03-13T02:39:49.328Z,507.00
2023-03-13T02:40:19.333Z,507.00
2023-03-13T02:40:49.364Z,507.00
2023-03-13T02:41:19.399Z,505.00
2023-03-13T02:41:49.435Z,504.00
2023-03-13T02:42:19.476Z,501.00
2023-03-13T02:42:49.504Z,502.00
2023-03-13T02:43:19.531Z,501.00
2023-03-13T02:43:49.572Z,500.00
2023-03-13T02:44:19.606Z,500.00
2023-03-13T02:44:49.639Z,500.00
2023-03-13T02:45:19.679Z,498.00
2023-03-13T02:45:49.733Z,496.00
2023-03-13T02:46:19.814Z,497.00
2023-03-13T02:46:50.054Z,497.00
2023-03-13T02:47:19.882Z,496.00
2023-03-13T02:47:49.921Z,496.00
2023-03-13T02:48:19.953Z,495.00
2023-03-13T02:48:49.985Z,495.00
2023-03-13T02:49:20.011Z,497.00
2023-03-13T02:49:50.058Z,497.00
2023-03-13T02:50:20.086Z,498.00
2023-03-13T02:50:50.112Z,496.00
2023-03-13T02:51:20.160Z,497.00
2023-03-13T02:51:50.201Z,498.00
2023-03-13T02:52:20.234Z,500.00
2023-03-13T02:52:50.267Z,501.00
2023-03-13T02:53:20.299Z,503.00
2023-03-13T02:53:50.330Z,502.00
2023-03-13T02:54:20.358Z,503.00
2023-03-13T02:54:50.394Z,504.00
2023-03-13T02:55:20.449Z,502.00
2023-03-13T02:55:50.457Z,503.00
2023-03-13T02:56:20.487Z,505.00
2023-03-13T02:56:50.519Z,503.00
2023-03-13T02:57:20.552Z,503.00
2023-03-13T02:57:50.587Z,503.00
2023-03-13T02:58:20.617Z,503.00
2023-03-13T02:58:50.837Z,503.00
2023-03-13T02:59:20.746Z,502.00
2023-03-13T02:59:50.771Z,503.00
2023-03-13T03:00:20.829Z,505.00
2023-03-13T03:00:50.929Z,505.00
2023-03-13T03:01:20.971Z,504.00
2023-03-13T03:01:51.005Z,504.00
2023-03-13T03:02:21.044Z,503.00
2023-03-13T03:02:51.078Z,502.00
2023-03-13T03:03:21.108Z,501.00
2023-03-13T03:03:51.328Z,500.00
2023-03-13T03:04:21.349Z,501.00
2023-03-13T03:04:51.251Z,504.00
2023-03-13T03:05:21.285Z,504.00
2023-03-13T03:05:51.316Z,503.00
2023-03-13T03:06:21.343Z,502.00
2023-03-13T03:06:51.377Z,503.00
2023-03-13T03:07:21.415Z,504.00
2023-03-13T03:07:51.441Z,505.00
2023-03-13T03:08:21.479Z,504.00
2023-03-13T03:08:51.510Z,504.00
2023-03-13T03:09:21.543Z,504.00
2023-03-13T03:09:51.577Z,503.00
2023-03-13T03:10:21.610Z,504.00
2023-03-13T03:10:51.658Z,503.00
2023-03-13T03:11:21.672Z,501.00
2023-03-13T03:11:51.710Z,501.00
2023-03-13T03:12:21.746Z,502.00
2023-03-13T03:12:51.780Z,501.00
2023-03-13T03:13:21.820Z,502.00
2023-03-13T03:13:51.894Z,504.00
2023-03-13T03:14:21.892Z,504.00
2023-03-13T03:14:51.932Z,504.00
2023-03-13T03:15:21.961Z,503.00
2023-03-13T03:15:51.989Z,502.00
2023-03-13T03:16:22.073Z,501.00
2023-03-13T03:16:52.179Z,502.00
2023-03-13T03:17:22.201Z,502.00
2023-03-13T03:17:52.257Z,503.00
2023-03-13T03:18:22.267Z,503.00
2023-03-13T03:18:52.295Z,505.00
2023-03-13T03:19:22.327Z,505.00
2023-03-13T03:19:52.356Z,505.00
2023-03-13T03:20:22.389Z,506.00
2023-03-13T03:20:52.425Z,507.00
2023-03-13T03:21:22.473Z,506.00
2023-03-13T03:21:52.487Z,505.00
2023-03-13T03:22:22.514Z,506.00
2023-03-13T03:22:52.550Z,506.00
2023-03-13T03:23:22.585Z,507.00
2023-03-13T03:23:52.613Z,506.00
2023-03-13T03:24:22.653Z,505.00
2023-03-13T03:24:52.682Z,505.00
2023-03-13T03:25:22.713Z,505.00
2023-03-13T03:25:52.744Z,506.00
2023-03-13T03:26:22.809Z,504.00
2023-03-13T03:26:52.815Z,504.00
2023-03-13T03:27:22.841Z,503.00
2023-03-13T03:27:52.876Z,503.00
2023-03-13T03:28:22.906Z,504.00
2023-03-13T03:28:52.936Z,504.00
2023-03-13T03:29:22.943Z,506.00
2023-03-13T03:29:52.936Z,506.00
2023-03-13T03:30:23.050Z,506.00
2023-03-13T03:30:53.041Z,505.00
2023-03-13T03:31:23.173Z,505.00
2023-03-13T03:32:32.397Z,503.00
2023-03-13T03:33:02.413Z,503.00
2023-03-13T03:33:32.375Z,501.00
2023-03-13T03:34:02.447Z,503.00
2023-03-13T03:34:32.528Z,502.00
2023-03-13T03:35:02.620Z,504.00
2023-03-13T03:35:32.724Z,502.00
2023-03-13T03:36:02.864Z,503.00
2023-03-13T03:36:32.804Z,503.00
2023-03-13T03:37:02.891Z,504.00
2023-03-13T03:37:32.965Z,504.00
2023-03-13T03:38:03.045Z,503.00
2023-03-13T03:38:33.155Z,504.00
2023-03-13T03:39:03.227Z,502.00
2023-03-13T03:39:33.329Z,501.00
2023-03-13T03:40:03.415Z,503.00
2023-03-13T03:40:33.507Z,502.00
2023-03-13T03:41:03.570Z,502.00
2023-03-13T03:41:33.682Z,500.00
2023-03-13T03:42:03.749Z,501.00
2023-03-13T03:42:33.747Z,501.00
2023-03-13T03:43:03.741Z,503.00
2023-03-13T03:43:33.852Z,502.00
2023-03-13T03:44:03.850Z,503.00
2023-03-13T03:44:33.971Z,504.00
2023-03-13T03:45:04.083Z,501.00
2023-03-13T03:45:34.145Z,500.00
2023-03-13T03:46:04.249Z,500.00
2023-03-13T03:46:34.228Z,498.00
2023-03-13T03:47:04.292Z,499.00
2023-03-13T03:47:34.302Z,498.00
2023-03-13T03:48:04.397Z,498.00
2023-03-13T03:48:34.391Z,499.00
2023-03-13T03:49:04.504Z,501.00
2023-03-13T03:49:34.627Z,501.00
2023-03-13T03:50:04.630Z,503.00
2023-03-13T03:50:34.738Z,505.00
2023-03-13T03:51:04.733Z,506.00
2023-03-13T03:51:34.862Z,505.00
2023-03-13T03:52:04.969Z,504.00
2023-03-13T03:52:34.964Z,503.00
2023-03-13T03:53:04.964Z,505.00
2023-03-13T03:53:35.078Z,505.00
2023-03-13T03:54:05.068Z,503.00
2023-03-13T03:54:35.244Z,505.00
2023-03-13T03:55:05.212Z,506.00
2023-03-13T03:55:35.325Z,505.00
2023-03-13T03:56:05.443Z,503.00
2023-03-13T03:56:35.559Z,503.00
2023-03-13T03:57:05.586Z,504.00
2023-03-13T03:57:35.569Z,503.00
2023-03-13T03:58:05.669Z,504.00
2023-03-13T03:58:35.792Z,502.00
2023-03-13T03:59:05.899Z,502.00
2023-03-13T03:59:36.014Z,503.00
2023-03-13T04:00:06.013Z,506.00
2023-03-13T04:00:36.002Z,506.00
2023-03-13T04:01:06.116Z,507.00
2023-03-13T04:01:36.118Z,510.00
2023-03-13T04:02:06.290Z,513.00
2023-03-13T04:02:36.304Z,513.00
2023-03-13T04:03:06.320Z,513.00
2023-03-13T04:03:36.378Z,514.00
2023-03-13T04:04:06.405Z,514.00
2023-03-13T04:04:36.529Z,514.00
2023-03-13T04:05:06.638Z,514.00
2023-03-13T04:05:36.760Z,513.00
2023-03-13T04:06:06.875Z,512.00
2023-03-13T04:06:36.992Z,511.00
2023-03-13T04:07:07.112Z,510.00
2023-03-13T04:07:37.103Z,510.00
2023-03-13T04:08:07.219Z,511.00
2023-03-13T04:08:37.340Z,511.00
2023-03-13T04:09:07.460Z,512.00
2023-03-13T04:09:37.580Z,511.00
2023-03-13T04:10:07.567Z,510.00
2023-03-13T04:10:37.687Z,510.00
2023-03-13T04:11:07.804Z,510.00
2023-03-13T04:11:37.918Z,511.00
2023-03-13T04:12:08.079Z,512.00
2023-03-13T04:12:38.159Z,513.00
2023-03-13T04:13:08.272Z,515.00
2023-03-13T04:13:38.271Z,515.00
2023-03-13T04:14:08.388Z,513.00
2023-03-13T04:14:38.510Z,512.00
2023-03-13T04:15:08.597Z,512.00
2023-03-13T04:15:38.709Z,512.00
2023-03-13T04:16:08.729Z,511.00
2023-03-13T04:16:38.957Z,511.00
2023-03-13T04:17:08.869Z,510.00
2023-03-13T04:17:38.865Z,511.00
2023-03-13T04:18:08.980Z,511.00
2023-03-13T04:18:39.104Z,510.00
2023-03-13T04:19:09.095Z,509.00
2023-03-13T04:19:39.211Z,509.00
2023-03-13T04:20:09.207Z,510.00
2023-03-13T04:20:39.201Z,510.00
2023-03-13T04:21:09.322Z,510.00
2023-03-13T04:21:39.338Z,509.00
2023-03-13T04:22:09.334Z,508.00
2023-03-13T04:22:39.448Z,508.00
2023-03-13T04:23:09.453Z,506.00
2023-03-13T04:23:39.439Z,505.00
2023-03-13T04:24:09.559Z,506.00
2023-03-13T04:24:39.564Z,507.00
2023-03-13T04:25:09.550Z,506.00
2023-03-13T04:25:39.684Z,506.00
2023-03-13T04:26:09.663Z,507.00
2023-03-13T04:26:39.825Z,507.00
2023-03-13T04:27:09.818Z,508.00
2023-03-13T04:27:39.957Z,506.00
2023-03-13T04:28:09.995Z,507.00
2023-03-13T04:28:39.982Z,507.00
2023-03-13T04:29:10.106Z,507.00
2023-03-13T04:29:40.111Z,507.00
2023-03-13T04:30:10.097Z,507.00
2023-03-13T04:30:40.230Z,507.00
2023-03-13T04:31:10.329Z,507.00
2023-03-13T04:31:40.313Z,506.00
2023-03-13T04:32:10.442Z,505.00
2023-03-13T04:32:40.581Z,506.00
2023-03-13T04:33:10.567Z,507.00
2023-03-13T04:33:40.649Z,507.00
2023-03-13T04:34:10.731Z,505.00
2023-03-13T04:34:40.812Z,506.00
2023-03-13T04:35:10.960Z,506.00
2023-03-13T04:35:41.106Z,506.00
2023-03-13T04:36:11.130Z,505.00
2023-03-13T04:36:40.981Z,506.00
2023-03-13T04:37:11.064Z,505.00
2023-03-13T04:37:41.164Z,506.00
2023-03-13T04:38:11.255Z,506.00
2023-03-13T04:38:41.315Z,508.00
2023-03-13T04:39:11.433Z,507.00
2023-03-13T04:39:41.481Z,506.00
2023-03-13T04:40:11.556Z,505.00
2023-03-13T04:40:41.649Z,505.00
2023-03-13T04:41:11.724Z,504.00
2023-03-13T04:41:41.811Z,507.00
2023-03-13T04:42:11.897Z,506.00
2023-03-13T04:42:41.895Z,507.00
2023-03-13T04:43:12.037Z,504.00
2023-03-13T04:43:42.005Z,505.00
2023-03-13T04:44:12.007Z,505.00
2023-03-13T04:44:43.659Z,506.00
2023-03-13T04:45:12.152Z,508.00
2023-03-13T04:45:42.247Z,507.00
2023-03-13T04:46:12.436Z,509.00
2023-03-13T04:46:42.423Z,510.00
2023-03-13T04:47:12.419Z,511.00
2023-03-13T04:47:42.420Z,511.00
2023-03-13T04:48:12.423Z,511.00
2023-03-13T04:48:42.440Z,509.00
2023-03-13T04:49:12.537Z,550.00
2023-03-13T04:49:42.538Z,624.00
2023-03-13T04:50:12.537Z,558.00
2023-03-13T04:50:42.653Z,549.00
2023-03-13T04:51:12.768Z,543.00
2023-03-13T04:51:42.763Z,542.00
2023-03-13T04:52:12.760Z,546.00
2023-03-13T04:52:42.764Z,549.00
2023-03-13T04:53:12.751Z,553.00
2023-03-13T04:53:42.745Z,556.00
2023-03-13T04:54:12.876Z,556.00
2023-03-13T04:54:42.988Z,559.00
2023-03-13T04:55:12.975Z,560.00
2023-03-13T04:55:43.093Z,562.00
2023-03-13T04:56:13.210Z,563.00
2023-03-13T04:56:44.374Z,564.00
2023-03-13T04:57:13.295Z,568.00
2023-03-13T04:57:43.415Z,572.00
2023-03-13T04:58:13.432Z,575.00
2023-03-13T04:58:44.545Z,578.00
2023-03-13T04:59:13.494Z,580.00
2023-03-13T04:59:43.485Z,583.00
2023-03-13T05:00:13.605Z,584.00
2023-03-13T05:00:43.724Z,585.00
2023-03-13T05:01:13.812Z,586.00
2023-03-13T05:01:43.923Z,589.00
2023-03-13T05:02:13.922Z,590.00
2023-03-13T05:02:43.924Z,591.00
2023-03-13T05:03:14.034Z,592.00
2023-03-13T05:03:44.026Z,593.00
2023-03-13T05:04:14.026Z,594.00
2023-03-13T05:04:44.165Z,596.00
2023-03-13T05:05:14.190Z,597.00
2023-03-13T05:05:44.182Z,599.00
2023-03-13T05:06:14.317Z,598.00
2023-03-13T05:06:44.316Z,603.00
2023-03-13T05:07:14.337Z,607.00
2023-03-13T05:07:44.326Z,610.00
2023-03-13T05:08:14.324Z,613.00
2023-03-13T05:08:44.443Z,616.00
2023-03-13T05:09:14.560Z,619.00
2023-03-13T05:09:44.567Z,620.00
2023-03-13T05:10:14.677Z,623.00
2023-03-13T05:10:44.673Z,623.00
2023-03-13T05:11:14.675Z,625.00
2023-03-13T05:11:44.793Z,628.00
2023-03-13T05:12:14.942Z,631.00
2023-03-13T05:12:45.001Z,632.00
2023-03-13T05:13:14.995Z,634.00
2023-03-13T05:13:45.018Z,633.00
2023-03-13T05:14:15.004Z,635.00
2023-03-13T05:14:45.162Z,635.00
2023-03-13T05:15:15.103Z,634.00
2023-03-13T05:15:45.142Z,635.00
2023-03-13T05:16:15.140Z,636.00
2023-03-13T05:16:45.111Z,638.00
2023-03-13T05:17:15.230Z,638.00
2023-03-13T05:17:45.350Z,641.00
2023-03-13T05:18:15.356Z,644.00
2023-03-13T05:18:45.336Z,643.00
2023-03-13T05:19:15.461Z,643.00
2023-03-13T05:19:45.580Z,643.00
2023-03-13T05:20:15.563Z,645.00
2023-03-13T05:20:45.556Z,647.00
2023-03-13T05:21:15.673Z,648.00
2023-03-13T05:21:45.814Z,649.00
2023-03-13T05:22:15.812Z,651.00
2023-03-13T05:22:45.935Z,653.00
2023-03-13T05:23:15.942Z,655.00
2023-03-13T05:23:46.061Z,656.00
2023-03-13T05:24:16.169Z,656.00
2023-03-13T05:24:46.167Z,657.00
2023-03-13T05:25:16.284Z,660.00
2023-03-13T05:25:46.400Z,661.00
2023-03-13T05:26:16.520Z,663.00
2023-03-13T05:26:46.638Z,664.00
2023-03-13T05:27:16.636Z,665.00
2023-03-13T05:27:46.641Z,666.00
2023-03-13T05:28:16.638Z,666.00
2023-03-13T05:28:46.633Z,665.00
2023-03-13T05:29:16.652Z,667.00
2023-03-13T05:29:46.652Z,667.00
2023-03-13T05:30:16.648Z,667.00
2023-03-13T05:30:46.697Z,667.00
2023-03-13T05:31:16.862Z,668.00
2023-03-13T05:31:46.740Z,670.00
2023-03-13T05:32:16.881Z,671.00
2023-03-13T05:32:47.026Z,671.00
2023-03-13T05:33:17.010Z,671.00
2023-03-13T05:33:47.093Z,670.00
2023-03-13T05:34:17.176Z,672.00
2023-03-13T05:34:47.258Z,671.00
2023-03-13T05:35:17.352Z,672.00
2023-03-13T05:35:47.412Z,671.00
2023-03-13T05:36:17.491Z,670.00
2023-03-13T05:36:47.597Z,669.00
2023-03-13T05:37:17.681Z,671.00
2023-03-13T05:37:47.772Z,672.00
2023-03-13T05:38:17.849Z,673.00
2023-03-13T05:38:47.935Z,673.00
2023-03-13T05:39:18.020Z,675.00
2023-03-13T05:39:48.100Z,673.00
2023-03-13T05:40:18.203Z,675.00
2023-03-13T05:40:48.281Z,678.00
2023-03-13T05:41:18.361Z,679.00
2023-03-13T05:41:48.497Z,680.00
2023-03-13T05:42:18.445Z,679.00
2023-03-13T05:42:48.571Z,680.00
2023-03-13T05:43:18.562Z,680.00
2023-03-13T05:43:48.555Z,683.00
2023-03-13T05:44:18.705Z,686.00
2023-03-13T05:44:48.682Z,688.00
2023-03-13T05:45:18.668Z,688.00
2023-03-13T05:45:48.781Z,692.00
2023-03-13T05:46:18.834Z,692.00
2023-03-13T05:46:48.972Z,695.00
2023-03-13T05:47:18.878Z,694.00
2023-03-13T05:47:48.874Z,697.00
2023-03-13T05:48:18.870Z,697.00
2023-03-13T05:48:48.987Z,696.00
2023-03-13T05:49:19.114Z,697.00
2023-03-13T05:49:49.224Z,698.00
2023-03-13T05:50:19.220Z,696.00
2023-03-13T05:50:49.217Z,695.00
2023-03-13T05:51:19.335Z,696.00
2023-03-13T05:51:49.457Z,698.00
2023-03-13T05:52:19.466Z,698.00
2023-03-13T05:52:49.581Z,699.00
2023-03-13T05:53:19.708Z,700.00
2023-03-13T05:53:49.697Z,704.00
2023-03-13T05:54:19.692Z,707.00
2023-03-13T05:54:49.818Z,707.00
2023-03-13T05:55:19.806Z,710.00
2023-03-13T05:55:49.808Z,715.00
2023-03-13T05:56:19.917Z,716.00
2023-03-13T05:56:49.908Z,718.00
2023-03-13T05:57:20.026Z,719.00
2023-03-13T05:57:50.144Z,719.00
2023-03-13T05:58:20.147Z,719.00
2023-03-13T05:58:50.137Z,719.00
2023-03-13T05:59:20.161Z,721.00
2023-03-13T05:59:50.131Z,722.00
2023-03-13T06:00:20.251Z,724.00
2023-03-13T06:00:50.382Z,729.00
2023-03-13T06:01:20.487Z,733.00
2023-03-13T06:01:50.490Z,737.00
2023-03-13T06:02:20.602Z,739.00
2023-03-13T06:02:50.724Z,741.00
2023-03-13T06:03:20.777Z,742.00
2023-03-13T06:03:50.984Z,744.00
2023-03-13T06:04:21.082Z,747.00
2023-03-13T06:04:51.100Z,749.00
2023-03-13T06:05:20.935Z,751.00
2023-03-13T06:05:51.047Z,754.00
2023-03-13T06:06:21.042Z,756.00
2023-03-13T06:06:51.035Z,760.00
2023-03-13T06:07:21.032Z,764.00
2023-03-13T06:07:51.039Z,769.00
2023-03-13T06:08:21.856Z,771.00
2023-03-13T06:08:51.109Z,775.00
2023-03-13T06:09:21.107Z,777.00
2023-03-13T06:09:51.102Z,779.00
2023-03-13T06:10:21.105Z,780.00
2023-03-13T06:10:51.100Z,781.00
2023-03-13T06:11:21.108Z,783.00
2023-03-13T06:11:51.094Z,785.00
2023-03-13T06:12:21.216Z,786.00
2023-03-13T06:12:51.343Z,785.00
2023-03-13T06:13:21.345Z,787.00
2023-03-13T06:13:51.455Z,788.00
2023-03-13T06:14:21.571Z,789.00
2023-03-13T06:14:51.593Z,791.00
2023-03-13T06:15:21.691Z,792.00